createdAt,value
2018-11-21T00:06:46.368Z,3.3
2018-11-21T00:21:58.228Z,3.3
2018-11-21T00:37:09.995Z,3.1
2018-11-21T00:52:21.811Z,3
2018-11-21T01:07:33.814Z,3
2018-11-21T01:22:39.555Z,3.1
2018-11-21T01:37:57.064Z,3.1
2018-11-21T01:53:08.819Z,2.9
2018-11-21T02:08:20.372Z,2.8
2018-11-21T02:23:32.117Z,2.8
2018-11-21T02:38:43.779Z,2.9
2018-11-21T02:53:55.526Z,2.9
2018-11-21T03:09:07.156Z,3
2018-11-21T03:24:19.027Z,3.1
2018-11-21T03:39:26.823Z,3.2
2018-11-21T03:54:42.514Z,3
2018-11-21T04:09:54.232Z,3
2018-11-21T04:25:05.948Z,2.9
2018-11-21T04:40:17.687Z,2.8
2018-11-21T04:55:29.452Z,3
2018-11-21T05:10:41.291Z,3.2
2018-11-21T05:25:53.055Z,3.2
2018-11-21T05:41:04.743Z,3
2018-11-21T05:56:13.806Z,3.1
2018-11-21T06:11:29.802Z,3
2018-11-21T06:26:40.567Z,3
2018-11-21T06:41:51.603Z,3
2018-11-21T06:56:54.215Z,2.8
2018-11-21T07:12:14.982Z,2.9
2018-11-21T07:27:26.615Z,3
2018-11-21T07:42:38.307Z,3.1
2018-11-21T07:57:50.173Z,2.9
2018-11-21T08:13:00.106Z,2.9
2018-11-21T08:28:13.558Z,3
2018-11-21T08:43:25.372Z,3.2
2018-11-21T08:58:37.134Z,3.3
2018-11-21T09:13:41.089Z,3.4
2018-11-21T09:29:00.911Z,3.5
2018-11-21T09:44:12.770Z,3.5
2018-11-21T09:59:24.758Z,3.5
2018-11-21T10:14:36.542Z,3.5
2018-11-21T10:29:47.921Z,3.6
2018-11-21T10:45:00.464Z,3.6
2018-11-21T11:00:12.360Z,3.6
2018-11-21T11:15:24.167Z,3.5
2018-11-21T11:30:28.912Z,3.6
2018-11-21T11:45:48.836Z,3.7
2018-11-21T12:01:00.232Z,4.1
2018-11-21T12:16:12.326Z,4.2
2018-11-21T12:31:24.488Z,4.1
2018-11-21T12:46:36.206Z,4.1
2018-11-21T13:01:49.311Z,4
2018-11-21T13:17:00.899Z,4.3
2018-11-21T13:32:13.530Z,4
2018-11-21T13:47:17.357Z,3.8
2018-11-21T14:02:37.464Z,3.4
2018-11-21T14:17:49.347Z,3.4
2018-11-21T14:33:01.449Z,3.4
2018-11-21T14:48:13.051Z,3.3
2018-11-21T15:03:23.790Z,3.3
2018-11-21T15:18:36.649Z,3.2
2018-11-21T15:33:48.332Z,3
2018-11-21T15:49:00.274Z,3.1
2018-11-21T16:04:04.593Z,3.1
2018-11-21T16:19:23.734Z,3.2
2018-11-21T16:34:35.553Z,3.2
2018-11-21T16:49:47.461Z,3.2
2018-11-21T17:04:59.957Z,3.1
2018-11-21T17:20:10.790Z,3.2
2018-11-21T17:35:22.634Z,3.1
2018-11-21T17:50:34.342Z,3.2
2018-11-21T18:05:46.239Z,3.3
2018-11-21T18:20:56.710Z,3.3
2018-11-21T18:36:09.879Z,3.3
2018-11-21T18:51:22.182Z,3.5
2018-11-21T19:06:33.767Z,3.6
2018-11-21T19:21:41.534Z,3.7
2018-11-21T19:36:57.633Z,3.5
2018-11-21T19:52:09.743Z,3.3
2018-11-21T20:07:21.377Z,3.4
2018-11-21T20:22:26.043Z,3.3
2018-11-21T20:37:45.018Z,3
2018-11-21T20:52:57.009Z,4.9
2018-11-21T21:08:09.510Z,4.3
2018-11-21T21:23:21.630Z,3.8
2018-11-21T21:38:33.435Z,3.3
2018-11-21T21:53:45.108Z,3
2018-11-21T22:08:56.832Z,3.1
2018-11-21T22:24:08.626Z,3.2
2018-11-21T22:39:14.037Z,3.3
2018-11-21T22:54:32.251Z,3.1
2018-11-21T23:09:44.200Z,3.2
2018-11-21T23:24:55.851Z,3
2018-11-21T23:40:07.511Z,3
2018-11-21T23:55:19.268Z,3.1
